Time;durP1;ratioP1;P1;durP2;ratioP2;P2;SDS_P1;SDS_P2;PMS_P1;PMS_P2;Temp;Humidity;BMP_temperature;BMP_pressure;BME280_temperature;BME280_humidity;BME280_pressure;Samples;Min_cycle;Max_cycle;Signal;HPM_P1;HPM_P2
2023/01/07 00:01:12;;;;;;;3.58;1.92;;;;;;;;;;5074372;28;20411;-73
2023/01/07 00:03:57;;;;;;;4.53;1.00;;;;;;;;;;5075243;28;20051;-75
2023/01/07 00:06:43;;;;;;;1.27;1.00;;;;;;;;;;5068595;28;20024;-73
2023/01/07 00:09:28;;;;;;;1.95;1.52;;;;;;;;;;5068533;28;20038;-74
2023/01/07 00:12:14;;;;;;;3.47;1.25;;;;;;;;;;5062860;28;20035;-73
2023/01/07 00:14:59;;;;;;;3.75;1.13;;;;;;;;;;5060780;28;20040;-74
2023/01/07 00:17:44;;;;;;;3.42;1.33;;;;;;;;;;5074951;28;20426;-73
2023/01/07 00:20:29;;;;;;;3.17;1.30;;;;;;;;;;5065127;28;20048;-74
2023/01/07 00:23:15;;;;;;;1.33;0.82;;;;;;;;;;5071460;28;20556;-74
2023/01/07 00:26:02;;;;;;;2.10;1.08;;;;;;;;;;5050039;28;20114;-73
2023/01/07 00:28:48;;;;;;;2.88;1.42;;;;;;;;;;5074260;28;20024;-72
2023/01/07 00:31:34;;;;;;;5.18;2.22;;;;;;;;;;5060635;28;20482;-73
2023/01/07 00:34:22;;;;;;;4.00;1.67;;;;;;;;;;5074686;28;20119;-74
2023/01/07 00:37:48;;;;;;;1.92;1.20;;;;;;;;;;5082304;28;20032;-74
2023/01/07 00:40:22;;;;;;;3.72;1.38;;;;;;;;;;5069783;28;20123;-74
2023/01/07 00:43:07;;;;;;;7.78;2.25;;;;;;;;;;5080737;28;20075;-76
2023/01/07 00:45:52;;;;;;;2.40;1.30;;;;;;;;;;5074421;28;20119;-73
2023/01/07 00:48:37;;;;;;;2.92;1.27;;;;;;;;;;5074287;28;20591;-75
2023/01/07 00:51:23;;;;;;;3.47;1.10;;;;;;;;;;5063834;28;20016;-76
2023/01/07 00:54:08;;;;;;;1.13;1.02;;;;;;;;;;5091698;28;20035;-76
2023/01/07 00:56:53;;;;;;;2.45;1.42;;;;;;;;;;5061696;28;20601;-76
2023/01/07 00:59:38;;;;;;;2.97;1.13;;;;;;;;;;5073471;28;20493;-75
2023/01/07 01:02:24;;;;;;;3.63;1.30;;;;;;;;;;5079216;28;20047;-75
2023/01/07 01:05:09;;;;;;;3.38;1.27;;;;;;;;;;5073413;28;20399;-75
2023/01/07 01:07:55;;;;;;;5.82;1.40;;;;;;;;;;5060646;28;20036;-78
2023/01/07 01:10:40;;;;;;;2.33;1.35;;;;;;;;;;5065652;28;20112;-77
2023/01/07 01:13:25;;;;;;;5.13;1.27;;;;;;;;;;5071301;28;20023;-75
2023/01/07 01:16:15;;;;;;;2.63;1.27;;;;;;;;;;5073925;28;20486;-75
2023/01/07 01:19:00;;;;;;;2.45;1.30;;;;;;;;;;5049003;28;20028;-76
2023/01/07 01:21:46;;;;;;;4.75;1.23;;;;;;;;;;5073544;28;20081;-74
2023/01/07 01:24:32;;;;;;;3.65;1.13;;;;;;;;;;5064129;28;20347;-75
2023/01/07 01:27:18;;;;;;;7.00;1.40;;;;;;;;;;5073319;28;20111;-75
2023/01/07 01:30:04;;;;;;;1.88;1.10;;;;;;;;;;5059815;28;20088;-75
2023/01/07 01:32:50;;;;;;;4.35;1.90;;;;;;;;;;5073867;28;20043;-75
2023/01/07 01:35:38;;;;;;;1.67;1.40;;;;;;;;;;5072802;28;20032;-76
2023/01/07 01:38:23;;;;;;;3.47;1.27;;;;;;;;;;5066639;28;20222;-76
2023/01/07 01:41:08;;;;;;;6.57;1.52;;;;;;;;;;5074084;28;20035;-75
2023/01/07 01:43:54;;;;;;;5.13;1.25;;;;;;;;;;5079876;28;20031;-75
2023/01/07 01:46:41;;;;;;;3.10;1.30;;;;;;;;;;5052947;28;20023;-75
2023/01/07 01:49:35;;;;;;;4.97;1.20;;;;;;;;;;5065691;28;20035;-75
2023/01/07 01:52:24;;;;;;;2.50;1.27;;;;;;;;;;5061873;28;20082;-75
2023/01/07 01:55:12;;;;;;;1.80;1.30;;;;;;;;;;5063003;28;20035;-74
2023/01/07 01:57:59;;;;;;;2.55;1.35;;;;;;;;;;5078795;28;20051;-74
2023/01/07 02:00:44;;;;;;;3.35;1.33;;;;;;;;;;5073316;28;20390;-74
2023/01/07 02:03:32;;;;;;;6.35;2.38;;;;;;;;;;5058143;28;20089;-76
2023/01/07 02:06:23;;;;;;;2.22;1.58;;;;;;;;;;5073002;28;20036;-77
2023/01/07 02:09:11;;;;;;;2.03;1.42;;;;;;;;;;5083955;28;20127;-75
2023/01/07 02:12:06;;;;;;;2.42;1.27;;;;;;;;;;5058986;28;20472;-76
2023/01/07 02:15:00;;;;;;;3.03;1.40;;;;;;;;;;5070573;28;20638;-74
2023/01/07 02:17:51;;;;;;;1.83;1.35;;;;;;;;;;5062204;28;20033;-75
2023/01/07 02:21:02;;;;;;;2.00;1.33;;;;;;;;;;5071463;28;20028;-75
2023/01/07 02:24:06;;;;;;;2.15;1.23;;;;;;;;;;5070804;28;20523;-73
2023/01/07 02:26:54;;;;;;;3.40;1.92;;;;;;;;;;5072344;28;20032;-73
2023/01/07 02:29:48;;;;;;;4.07;1.50;;;;;;;;;;5069422;28;20373;-75
2023/01/07 02:32:40;;;;;;;2.53;1.25;;;;;;;;;;5074180;28;20028;-75
2023/01/07 02:35:34;;;;;;;2.40;1.67;;;;;;;;;;5058749;28;20024;-75
2023/01/07 02:38:39;;;;;;;1.77;1.20;;;;;;;;;;5079599;28;20034;-75
2023/01/07 02:41:31;;;;;;;2.45;1.30;;;;;;;;;;5067223;28;20033;-75
2023/01/07 02:44:33;;;;;;;2.05;1.08;;;;;;;;;;5063868;28;20043;-74
2023/01/07 02:47:22;;;;;;;2.63;1.50;;;;;;;;;;5079056;28;20418;-76
2023/01/07 02:50:08;;;;;;;2.75;1.40;;;;;;;;;;5069088;28;20046;-79
2023/01/07 02:52:53;;;;;;;3.20;1.50;;;;;;;;;;5042778;28;20038;-77
2023/01/07 02:56:02;;;;;;;2.42;1.42;;;;;;;;;;5080124;28;20470;-77
2023/01/07 02:58:55;;;;;;;2.20;1.13;;;;;;;;;;5063808;28;20056;-77
2023/01/07 03:01:51;;;;;;;3.28;1.48;;;;;;;;;;5061665;28;20145;-79
2023/01/07 03:04:44;;;;;;;2.45;1.40;;;;;;;;;;5089685;28;20031;-78
2023/01/07 03:07:39;;;;;;;2.22;1.17;;;;;;;;;;5066997;28;20040;-78
2023/01/07 03:10:24;;;;;;;2.33;1.10;;;;;;;;;;5076318;28;20055;-77
2023/01/07 03:13:16;;;;;;;3.22;1.20;;;;;;;;;;5076493;28;20065;-75
2023/01/07 03:16:05;;;;;;;4.82;1.30;;;;;;;;;;5062132;28;20079;-74
2023/01/07 03:18:54;;;;;;;2.78;1.48;;;;;;;;;;5064777;28;20056;-74
2023/01/07 03:21:39;;;;;;;;;;;;;;;;;;5088680;28;20024;-86
2023/01/07 03:24:26;;;;;;;2.42;1.23;;;;;;;;;;5055196;28;19916;-84
2023/01/07 03:27:13;;;;;;;1.95;1.10;;;;;;;;;;5062488;28;20055;-82
2023/01/07 03:30:00;;;;;;;1.92;1.20;;;;;;;;;;5068521;28;20126;-75
2023/01/07 03:32:48;;;;;;;3.60;1.13;;;;;;;;;;5072980;28;20052;-74
2023/01/07 03:35:35;;;;;;;3.80;1.10;;;;;;;;;;5075628;28;20031;-75
2023/01/07 03:38:21;;;;;;;1.85;1.08;;;;;;;;;;5076382;28;20027;-67
2023/01/07 03:41:07;;;;;;;1.50;1.00;;;;;;;;;;5076005;28;20040;-67
2023/01/07 03:43:52;;;;;;;2.85;1.02;;;;;;;;;;5085231;28;20466;-66
2023/01/07 03:46:37;;;;;;;1.77;1.00;;;;;;;;;;5069502;28;20106;-69
2023/01/07 03:49:23;;;;;;;3.92;2.00;;;;;;;;;;5090283;28;20040;-68
2023/01/07 03:52:08;;;;;;;2.78;1.00;;;;;;;;;;5062355;28;20031;-75
2023/01/07 03:54:53;;;;;;;3.88;1.00;;;;;;;;;;5067669;28;20604;-76
2023/01/07 03:57:38;;;;;;;2.10;0.90;;;;;;;;;;5074799;28;20032;-76
2023/01/07 04:00:24;;;;;;;2.17;1.10;;;;;;;;;;5074966;28;20073;-75
2023/01/07 04:03:10;;;;;;;1.52;1.00;;;;;;;;;;5077719;28;20065;-69
2023/01/07 04:05:55;;;;;;;1.88;1.13;;;;;;;;;;5075049;28;20410;-69
2023/01/07 04:08:41;;;;;;;2.45;0.80;;;;;;;;;;5075656;28;20036;-70
2023/01/07 04:11:26;;;;;;;5.40;1.20;;;;;;;;;;5075239;28;20035;-69
2023/01/07 04:14:11;;;;;;;2.65;1.10;;;;;;;;;;5059834;28;20044;-69
2023/01/07 04:16:56;;;;;;;3.30;1.10;;;;;;;;;;5065536;28;20028;-68
2023/01/07 04:19:42;;;;;;;2.42;0.82;;;;;;;;;;5073154;28;20028;-69
2023/01/07 04:22:27;;;;;;;1.40;0.80;;;;;;;;;;5069245;28;20446;-70
2023/01/07 04:25:12;;;;;;;2.13;1.10;;;;;;;;;;5063141;28;20036;-70
2023/01/07 04:27:57;;;;;;;2.20;1.05;;;;;;;;;;5074899;28;20054;-78
2023/01/07 04:30:42;;;;;;;1.15;0.88;;;;;;;;;;5075399;28;20393;-78
2023/01/07 04:33:28;;;;;;;1.63;1.15;;;;;;;;;;5068941;28;20063;-79
2023/01/07 04:36:13;;;;;;;1.83;1.05;;;;;;;;;;5076936;28;20101;-78
2023/01/07 04:38:58;;;;;;;1.60;1.25;;;;;;;;;;5075015;28;20024;-85
2023/01/07 04:41:44;;;;;;;1.10;1.00;;;;;;;;;;5075264;28;20070;-85
2023/01/07 04:44:29;;;;;;;1.60;1.00;;;;;;;;;;5069788;28;20024;-84
2023/01/07 04:47:14;;;;;;;0.95;0.90;;;;;;;;;;5086366;28;20027;-84
2023/01/07 04:49:59;;;;;;;1.17;0.70;;;;;;;;;;5067841;28;20039;-84
2023/01/07 04:52:45;;;;;;;1.30;0.80;;;;;;;;;;5061416;28;20024;-70
2023/01/07 04:55:30;;;;;;;6.03;1.20;;;;;;;;;;5071472;28;20028;-70
2023/01/07 04:58:16;;;;;;;0.93;0.82;;;;;;;;;;5073048;28;20039;-69
2023/01/07 05:01:04;;;;;;;2.65;0.95;;;;;;;;;;5068590;28;20034;-70
2023/01/07 05:03:49;;;;;;;4.63;1.00;;;;;;;;;;5074026;28;20032;-68
2023/01/07 05:06:35;;;;;;;1.92;1.10;;;;;;;;;;5070906;28;20151;-70
2023/01/07 05:09:20;;;;;;;1.85;1.30;;;;;;;;;;5052322;28;20552;-70
2023/01/07 05:12:05;;;;;;;5.35;1.25;;;;;;;;;;5074359;28;20024;-68
2023/01/07 05:14:50;;;;;;;2.38;1.08;;;;;;;;;;5073932;28;20077;-70
2023/01/07 05:17:36;;;;;;;2.05;1.30;;;;;;;;;;5074041;28;20047;-68
2023/01/07 05:20:21;;;;;;;3.20;0.73;;;;;;;;;;5073806;28;20042;-68
2023/01/07 05:23:06;;;;;;;1.52;0.88;;;;;;;;;;5067131;28;20101;-67
2023/01/07 05:25:51;;;;;;;1.52;1.05;;;;;;;;;;5073722;28;20081;-71
2023/01/07 05:28:37;;;;;;;3.88;1.15;;;;;;;;;;5061829;28;20024;-69
2023/01/07 05:31:22;;;;;;;3.25;0.90;;;;;;;;;;5087487;28;20036;-69
2023/01/07 05:34:07;;;;;;;2.33;1.13;;;;;;;;;;5073879;28;20105;-70
2023/01/07 05:36:52;;;;;;;2.70;0.93;;;;;;;;;;5072990;28;20020;-70
2023/01/07 05:39:37;;;;;;;1.73;0.80;;;;;;;;;;5063556;28;20032;-69
2023/01/07 05:42:23;;;;;;;5.93;1.23;;;;;;;;;;5071471;28;20123;-69
2023/01/07 05:45:08;;;;;;;1.50;0.90;;;;;;;;;;5066263;28;20122;-70
2023/01/07 05:47:53;;;;;;;2.35;1.00;;;;;;;;;;5072116;28;20028;-68
2023/01/07 05:50:38;;;;;;;1.60;1.00;;;;;;;;;;5073268;28;20032;-69
2023/01/07 05:53:24;;;;;;;2.85;0.82;;;;;;;;;;5059812;28;20223;-69
2023/01/07 05:56:09;;;;;;;0.80;0.80;;;;;;;;;;5063993;28;20047;-70
2023/01/07 05:58:54;;;;;;;0.70;0.70;;;;;;;;;;5073256;28;20034;-69
2023/01/07 06:01:39;;;;;;;1.48;0.82;;;;;;;;;;5073613;28;20439;-69
2023/01/07 06:04:25;;;;;;;3.30;0.93;;;;;;;;;;5073328;28;20039;-69
2023/01/07 06:07:10;;;;;;;1.20;0.80;;;;;;;;;;5071432;28;20032;-69
2023/01/07 06:09:55;;;;;;;0.88;0.88;;;;;;;;;;5073038;28;20123;-71
2023/01/07 06:12:41;;;;;;;1.98;1.00;;;;;;;;;;5079298;28;20024;-70
2023/01/07 06:15:26;;;;;;;2.50;1.00;;;;;;;;;;5073139;28;20028;-69
2023/01/07 06:18:11;;;;;;;1.63;0.90;;;;;;;;;;5039191;28;20596;-70
2023/01/07 06:20:56;;;;;;;0.98;0.93;;;;;;;;;;5061830;28;20032;-68
2023/01/07 06:23:42;;;;;;;4.13;1.25;;;;;;;;;;5070083;28;20458;-71
2023/01/07 06:26:27;;;;;;;5.68;1.88;;;;;;;;;;5072890;28;20155;-69
2023/01/07 06:29:12;;;;;;;0.98;0.88;;;;;;;;;;5070370;28;20664;-69
2023/01/07 06:31:58;;;;;;;1.67;1.17;;;;;;;;;;5085901;28;20046;-69
2023/01/07 06:34:43;;;;;;;1.30;1.10;;;;;;;;;;5048948;28;20048;-69
2023/01/07 06:37:28;;;;;;;1.00;0.80;;;;;;;;;;5076815;28;20043;-69
2023/01/07 06:40:14;;;;;;;1.90;0.93;;;;;;;;;;5079181;28;20028;-69
2023/01/07 06:42:59;;;;;;;1.80;1.00;;;;;;;;;;5071073;28;20032;-72
2023/01/07 06:45:44;;;;;;;2.00;0.82;;;;;;;;;;5082251;28;20032;-83
2023/01/07 06:48:29;;;;;;;1.52;0.85;;;;;;;;;;5068810;28;20024;-81
2023/01/07 06:51:14;;;;;;;1.63;0.95;;;;;;;;;;5075333;28;20035;-81
2023/01/07 06:54:00;;;;;;;1.45;1.10;;;;;;;;;;5075467;28;20864;-80
2023/01/07 06:56:45;;;;;;;1.25;1.10;;;;;;;;;;5062154;28;20032;-84
2023/01/07 06:59:30;;;;;;;3.35;0.90;;;;;;;;;;5058628;28;20506;-84
2023/01/07 07:02:20;;;;;;;3.97;1.27;;;;;;;;;;5085333;28;20028;-75
2023/01/07 07:05:06;;;;;;;5.63;1.48;;;;;;;;;;5077034;28;20031;-77
2023/01/07 07:07:51;;;;;;;2.05;1.45;;;;;;;;;;5076697;28;20035;-76
2023/01/07 07:10:36;;;;;;;1.13;0.95;;;;;;;;;;5072401;28;20032;-69
2023/01/07 07:13:21;;;;;;;3.08;1.45;;;;;;;;;;5068056;28;20040;-70
2023/01/07 07:16:07;;;;;;;2.03;1.30;;;;;;;;;;5076886;28;20020;-70
2023/01/07 07:18:52;;;;;;;4.78;1.38;;;;;;;;;;5065588;28;20039;-72
2023/01/07 07:21:37;;;;;;;1.63;1.23;;;;;;;;;;5058952;28;20487;-70
2023/01/07 07:24:22;;;;;;;3.17;1.10;;;;;;;;;;5070230;28;20035;-71
2023/01/07 07:27:08;;;;;;;1.30;1.20;;;;;;;;;;5059493;28;20299;-70
2023/01/07 07:29:53;;;;;;;1.40;0.98;;;;;;;;;;5055750;28;20043;-70
2023/01/07 07:32:38;;;;;;;0.75;0.75;;;;;;;;;;5058789;28;20486;-70
2023/01/07 07:35:23;;;;;;;3.40;1.42;;;;;;;;;;5065050;28;20391;-70
2023/01/07 07:38:09;;;;;;;1.52;1.30;;;;;;;;;;5055940;28;20031;-73
2023/01/07 07:40:55;;;;;;;3.95;1.45;;;;;;;;;;5062531;28;20028;-70
2023/01/07 07:43:40;;;;;;;2.03;1.20;;;;;;;;;;5086667;28;20057;-69
2023/01/07 07:46:26;;;;;;;1.52;1.40;;;;;;;;;;5067243;28;20031;-70
2023/01/07 07:49:11;;;;;;;1.45;0.90;;;;;;;;;;5075232;28;20035;-70
2023/01/07 07:51:56;;;;;;;1.23;0.90;;;;;;;;;;5075353;28;20038;-69
2023/01/07 07:54:41;;;;;;;2.78;1.10;;;;;;;;;;5075839;28;20387;-71
2023/01/07 07:57:27;;;;;;;2.22;1.40;;;;;;;;;;5069784;28;20028;-70
2023/01/07 08:00:12;;;;;;;2.53;1.20;;;;;;;;;;5066530;28;20044;-71
2023/01/07 08:02:58;;;;;;;1.00;0.90;;;;;;;;;;5072921;28;20039;-70
2023/01/07 08:05:43;;;;;;;2.08;1.05;;;;;;;;;;5075269;28;20043;-72
2023/01/07 08:08:29;;;;;;;1.25;0.90;;;;;;;;;;5078273;28;20040;-71
2023/01/07 08:11:14;;;;;;;1.25;1.00;;;;;;;;;;5060352;28;20558;-71
2023/01/07 08:13:59;;;;;;;0.80;0.80;;;;;;;;;;5075310;28;20036;-71
2023/01/07 08:16:44;;;;;;;1.10;0.80;;;;;;;;;;5075273;28;20055;-70
2023/01/07 08:19:30;;;;;;;3.25;0.98;;;;;;;;;;5078369;28;20095;-70
2023/01/07 08:22:15;;;;;;;1.67;1.05;;;;;;;;;;5078024;28;20060;-71
2023/01/07 08:25:00;;;;;;;1.08;1.00;;;;;;;;;;5061281;28;20090;-70
2023/01/07 08:27:46;;;;;;;1.50;0.90;;;;;;;;;;5060500;28;20106;-69
2023/01/07 08:30:31;;;;;;;1.73;0.90;;;;;;;;;;5075098;28;20379;-71
2023/01/07 08:33:16;;;;;;;4.47;1.13;;;;;;;;;;5069008;28;20548;-68
2023/01/07 08:36:06;;;;;;;1.98;1.00;;;;;;;;;;5053282;28;20036;-75
2023/01/07 08:38:51;;;;;;;;;;;;;;;;;;5077287;28;20036;-71
2023/01/07 08:41:36;;;;;;;1.85;1.60;;;;;;;;;;5074258;28;20100;-73
2023/01/07 08:44:21;;;;;;;3.63;1.23;;;;;;;;;;5068310;28;20044;-75
2023/01/07 08:47:07;;;;;;;2.08;1.27;;;;;;;;;;5071509;28;20040;-74
2023/01/07 08:49:55;;;;;;;1.73;1.25;;;;;;;;;;5074343;28;20035;-74
2023/01/07 08:52:40;;;;;;;3.03;1.40;;;;;;;;;;5061377;28;20094;-73
2023/01/07 08:55:26;;;;;;;1.55;0.95;;;;;;;;;;5058485;28;20684;-72
2023/01/07 08:58:11;;;;;;;3.33;1.50;;;;;;;;;;5070505;28;20032;-77
2023/01/07 09:01:04;;;;;;;2.47;1.30;;;;;;;;;;5067761;28;20134;-73
2023/01/07 09:03:49;;;;;;;2.17;1.38;;;;;;;;;;5068563;28;20032;-72
2023/01/07 09:06:34;;;;;;;1.40;1.17;;;;;;;;;;5073877;28;20138;-75
2023/01/07 09:09:20;;;;;;;1.60;0.95;;;;;;;;;;5055940;28;20035;-74
2023/01/07 09:12:06;;;;;;;4.03;1.10;;;;;;;;;;5065384;28;20093;-73
2023/01/07 09:14:51;;;;;;;1.77;1.02;;;;;;;;;;5067208;28;20491;-73
2023/01/07 09:17:37;;;;;;;2.55;1.25;;;;;;;;;;5064268;28;20092;-74
2023/01/07 09:20:22;;;;;;;2.17;1.33;;;;;;;;;;5074223;28;20040;-73
2023/01/07 09:23:08;;;;;;;1.55;1.10;;;;;;;;;;5074932;28;20047;-74
2023/01/07 09:25:53;;;;;;;1.35;1.20;;;;;;;;;;5078964;28;20031;-74
2023/01/07 09:28:38;;;;;;;1.65;1.10;;;;;;;;;;5075327;28;20035;-75
2023/01/07 09:31:23;;;;;;;2.53;1.60;;;;;;;;;;5058599;28;20028;-73
2023/01/07 09:34:09;;;;;;;2.47;1.48;;;;;;;;;;5039733;28;20024;-75
2023/01/07 09:36:54;;;;;;;2.55;1.60;;;;;;;;;;5072898;28;20035;-75
2023/01/07 09:39:39;;;;;;;2.00;1.50;;;;;;;;;;5059282;28;20368;-75
2023/01/07 09:42:48;;;;;;;6.15;1.67;;;;;;;;;;5077809;28;20045;-74
2023/01/07 09:45:53;;;;;;;1.92;1.60;;;;;;;;;;5073774;28;20032;-73
2023/01/07 09:48:40;;;;;;;3.78;2.05;;;;;;;;;;5064874;28;20478;-73
2023/01/07 09:51:29;;;;;;;3.08;1.90;;;;;;;;;;5048953;28;20028;-82
2023/01/07 09:54:29;;;;;;;3.53;2.65;;;;;;;;;;5066980;28;20701;-85
2023/01/07 09:57:15;;;;;;;3.30;2.17;;;;;;;;;;5064014;28;20036;-84
2023/01/07 10:00:02;;;;;;;4.53;2.47;;;;;;;;;;5071480;28;20016;-82
2023/01/07 10:03:07;;;;;;;4.28;2.67;;;;;;;;;;5055841;28;20428;-72
2023/01/07 10:05:53;;;;;;;4.78;2.53;;;;;;;;;;5059925;28;20028;-69
2023/01/07 10:08:58;;;;;;;4.20;2.78;;;;;;;;;;5069058;28;20032;-69
2023/01/07 10:11:48;;;;;;;3.53;2.33;;;;;;;;;;5059469;28;20036;-70
2023/01/07 10:14:33;;;;;;;5.75;3.17;;;;;;;;;;5073262;28;20478;-70
2023/01/07 10:17:20;;;;;;;4.63;3.20;;;;;;;;;;5073032;28;20040;-70
2023/01/07 10:20:12;;;;;;;4.78;2.70;;;;;;;;;;5052996;28;20056;-70
2023/01/07 10:23:17;;;;;;;4.70;2.85;;;;;;;;;;5062073;28;20035;-71
2023/01/07 10:26:03;;;;;;;4.18;2.50;;;;;;;;;;5081575;28;20119;-70
2023/01/07 10:28:50;;;;;;;4.50;2.67;;;;;;;;;;5072012;28;20255;-70
2023/01/07 10:31:35;;;;;;;4.40;2.65;;;;;;;;;;5071455;28;20023;-70
2023/01/07 10:34:23;;;;;;;5.07;2.95;;;;;;;;;;5073073;28;20047;-69
2023/01/07 10:37:22;;;;;;;3.40;2.45;;;;;;;;;;5072701;28;20039;-70
2023/01/07 10:40:26;;;;;;;4.20;2.07;;;;;;;;;;5072765;28;20075;-72
2023/01/07 10:43:24;;;;;;;4.57;2.58;;;;;;;;;;5075023;28;20063;-70
2023/01/07 10:46:29;;;;;;;3.50;2.35;;;;;;;;;;5061167;28;20031;-71
2023/01/07 10:49:33;;;;;;;4.82;2.72;;;;;;;;;;5072729;28;20038;-71
2023/01/07 10:52:21;;;;;;;2.90;2.28;;;;;;;;;;5071977;28;20115;-71
2023/01/07 10:55:09;;;;;;;5.35;2.78;;;;;;;;;;5059815;28;20037;-70
2023/01/07 10:57:55;;;;;;;4.38;2.47;;;;;;;;;;5060803;28;20362;-69
2023/01/07 11:00:40;;;;;;;4.85;2.33;;;;;;;;;;5075513;28;20046;-69
2023/01/07 11:03:26;;;;;;;6.40;2.72;;;;;;;;;;5063604;28;20469;-72
2023/01/07 11:06:12;;;;;;;4.90;2.95;;;;;;;;;;5066839;28;20490;-70
2023/01/07 11:08:57;;;;;;;4.15;2.47;;;;;;;;;;5071011;28;20097;-69
2023/01/07 11:11:44;;;;;;;4.90;2.65;;;;;;;;;;5076422;28;20119;-70
2023/01/07 11:14:34;;;;;;;4.50;2.50;;;;;;;;;;5072095;28;20402;-70
2023/01/07 11:17:37;;;;;;;3.50;2.17;;;;;;;;;;5059954;28;20059;-70
2023/01/07 11:20:43;;;;;;;5.18;2.70;;;;;;;;;;5088883;28;20028;-70
2023/01/07 11:23:35;;;;;;;6.32;3.10;;;;;;;;;;5069797;28;20485;-71
2023/01/07 11:26:25;;;;;;;5.20;2.88;;;;;;;;;;5058536;28;20098;-71
2023/01/07 11:29:24;;;;;;;5.13;2.90;;;;;;;;;;5071496;28;20461;-70
2023/01/07 11:32:28;;;;;;;4.15;2.50;;;;;;;;;;5070420;28;20035;-70
2023/01/07 11:35:18;;;;;;;3.97;2.88;;;;;;;;;;5048145;28;20111;-71
2023/01/07 11:38:23;;;;;;;5.43;3.15;;;;;;;;;;5075647;28;20028;-71
2023/01/07 11:41:18;;;;;;;4.93;2.75;;;;;;;;;;5075744;28;20483;-72
2023/01/07 11:44:13;;;;;;;5.05;3.15;;;;;;;;;;5063333;28;20036;-70
2023/01/07 11:46:59;;;;;;;5.50;2.80;;;;;;;;;;5071652;28;20072;-70
2023/01/07 11:49:44;;;;;;;4.63;3.10;;;;;;;;;;5075782;28;20039;-70
2023/01/07 11:52:30;;;;;;;3.55;2.45;;;;;;;;;;5089210;28;20024;-71
2023/01/07 11:55:17;;;;;;;3.08;2.42;;;;;;;;;;5047232;28;20429;-69
2023/01/07 11:58:05;;;;;;;5.22;3.00;;;;;;;;;;5064783;28;20110;-70
2023/01/07 12:01:03;;;;;;;4.38;2.67;;;;;;;;;;5089305;28;20039;-70
2023/01/07 12:03:51;;;;;;;4.15;2.60;;;;;;;;;;5079023;28;20094;-71
2023/01/07 12:06:39;;;;;;;4.43;2.33;;;;;;;;;;5067817;28;20039;-69
2023/01/07 12:09:26;;;;;;;5.65;2.90;;;;;;;;;;5070328;28;20115;-72
2023/01/07 12:12:38;;;;;;;3.75;2.65;;;;;;;;;;5075211;28;20024;-69
2023/01/07 12:15:28;;;;;;;5.28;2.35;;;;;;;;;;5075250;28;20063;-70
2023/01/07 12:18:32;;;;;;;3.75;2.33;;;;;;;;;;5074682;28;20348;-71
2023/01/07 12:21:26;;;;;;;4.40;2.85;;;;;;;;;;5060636;28;20467;-70
2023/01/07 12:24:21;;;;;;;3.95;2.60;;;;;;;;;;5074371;28;20047;-69
2023/01/07 12:27:11;;;;;;;3.67;2.90;;;;;;;;;;5066022;28;20055;-70
2023/01/07 12:30:01;;;;;;;4.20;2.55;;;;;;;;;;5068456;28;20117;-68
2023/01/07 12:32:53;;;;;;;3.55;2.70;;;;;;;;;;5055044;28;20029;-69
2023/01/07 12:35:40;;;;;;;7.15;3.30;;;;;;;;;;5078391;28;20035;-69
2023/01/07 12:38:33;;;;;;;3.95;2.38;;;;;;;;;;5059408;28;20032;-70
2023/01/07 12:41:27;;;;;;;4.18;2.63;;;;;;;;;;5068976;28;20028;-72
2023/01/07 12:44:22;;;;;;;5.35;2.58;;;;;;;;;;5067066;28;20044;-70
2023/01/07 12:47:16;;;;;;;4.93;2.78;;;;;;;;;;5071306;28;20518;-71
2023/01/07 12:50:12;;;;;;;5.68;3.65;;;;;;;;;;5074186;28;20375;-71
2023/01/07 12:52:57;;;;;;;6.18;3.40;;;;;;;;;;5063547;28;20031;-68
2023/01/07 12:55:45;;;;;;;6.97;3.72;;;;;;;;;;5074719;28;20036;-70
2023/01/07 12:58:36;;;;;;;4.65;2.95;;;;;;;;;;5088561;28;20102;-70
2023/01/07 13:01:21;;;;;;;5.80;2.75;;;;;;;;;;5062921;28;20474;-71
2023/01/07 13:04:16;;;;;;;4.45;2.65;;;;;;;;;;5073637;28;20143;-69
2023/01/07 13:07:13;;;;;;;6.00;2.78;;;;;;;;;;5068985;28;20047;-70
2023/01/07 13:10:09;;;;;;;5.70;2.45;;;;;;;;;;5061803;28;20043;-69
2023/01/07 13:12:56;;;;;;;4.22;2.70;;;;;;;;;;5064708;28;20020;-70
2023/01/07 13:15:41;;;;;;;4.35;2.10;;;;;;;;;;5073879;28;20101;-69
2023/01/07 13:18:28;;;;;;;4.63;2.20;;;;;;;;;;5057158;28;20042;-71
2023/01/07 13:21:14;;;;;;;3.35;2.58;;;;;;;;;;5076211;28;20031;-69
2023/01/07 13:24:06;;;;;;;2.78;2.20;;;;;;;;;;5086991;28;20536;-71
2023/01/07 13:27:00;;;;;;;4.80;3.17;;;;;;;;;;5061534;28;20047;-90
2023/01/07 13:30:05;;;;;;;4.05;2.55;;;;;;;;;;5056126;28;20078;-89
2023/01/07 13:33:08;;;;;;;4.47;2.95;;;;;;;;;;5068809;28;20040;-91
2023/01/07 13:35:59;;;;;;;3.25;2.30;;;;;;;;;;5066277;28;20032;-89
2023/01/07 13:39:01;;;;;;;3.95;2.60;;;;;;;;;;5074827;28;20053;-89
2023/01/07 13:42:05;;;;;;;6.30;2.38;;;;;;;;;;5068404;28;20034;-87
2023/01/07 13:44:50;;;;;;;3.75;2.55;;;;;;;;;;5069413;28;20628;-90
2023/01/07 13:47:47;;;;;;;4.05;2.60;;;;;;;;;;5074412;28;20330;-90
2023/01/07 13:50:34;;;;;;;5.03;2.40;;;;;;;;;;5071656;28;20044;-88
2023/01/07 13:53:19;;;;;;;5.03;2.28;;;;;;;;;;5073806;28;20089;-88
2023/01/07 13:56:17;;;;;;;5.18;3.10;;;;;;;;;;5069466;28;20024;-89
2023/01/07 13:59:03;;;;;;;4.93;2.78;;;;;;;;;;5070735;28;20079;-87
2023/01/07 14:02:14;;;;;;;4.05;2.58;;;;;;;;;;5088403;28;20158;-87
2023/01/07 14:05:04;;;;;;;4.82;2.90;;;;;;;;;;5066932;28;20129;-89
2023/01/07 14:07:51;;;;;;;4.05;2.80;;;;;;;;;;5059331;28;20028;-87
2023/01/07 14:10:36;;;;;;;4.22;2.55;;;;;;;;;;5071890;28;20383;-89
2023/01/07 14:13:30;;;;;;;3.70;2.53;;;;;;;;;;5031273;28;20111;-86
2023/01/07 14:16:25;;;;;;;4.07;2.75;;;;;;;;;;5043608;28;20033;-88
2023/01/07 14:19:29;;;;;;;8.65;4.43;;;;;;;;;;5051052;28;20395;-88
2023/01/07 14:22:16;;;;;;;4.95;2.67;;;;;;;;;;5035326;28;20084;-87
2023/01/07 14:25:10;;;;;;;6.43;3.00;;;;;;;;;;5037337;28;20071;-87
2023/01/07 14:28:14;;;;;;;5.88;3.15;;;;;;;;;;5030630;28;20267;-88
2023/01/07 14:31:00;;;;;;;3.75;2.83;;;;;;;;;;5018460;28;20104;-89
2023/01/07 14:33:49;;;;;;;3.83;2.50;;;;;;;;;;5034463;28;20063;-88
2023/01/07 14:37:04;;;;;;;3.88;2.45;;;;;;;;;;5015070;28;20516;-87
2023/01/07 14:39:49;;;;;;;5.30;2.45;;;;;;;;;;5025483;28;20080;-86
2023/01/07 14:42:37;;;;;;;4.47;3.08;;;;;;;;;;5026264;28;20503;-88
2023/01/07 14:45:37;;;;;;;3.70;2.13;;;;;;;;;;5079843;28;20063;-88
2023/01/07 14:48:27;;;;;;;4.43;2.58;;;;;;;;;;5079759;28;20587;-86
2023/01/07 14:51:31;;;;;;;4.65;2.47;;;;;;;;;;5052163;28;20031;-88
2023/01/07 14:54:19;;;;;;;7.45;2.80;;;;;;;;;;5062972;28;20036;-88
2023/01/07 14:57:08;;;;;;;4.65;2.60;;;;;;;;;;5047764;28;20028;-89
2023/01/07 15:00:10;;;;;;;6.07;2.67;;;;;;;;;;5067192;28;20035;-87
2023/01/07 15:03:14;;;;;;;4.90;2.75;;;;;;;;;;5081362;28;20432;-88
2023/01/07 15:06:18;;;;;;;5.57;2.33;;;;;;;;;;5075413;28;20190;-86
2023/01/07 15:18:52;;;;;;;5.25;2.70;;;;;;;;;;5093705;28;20115;-89
2023/01/07 15:21:49;;;;;;;4.78;2.47;;;;;;;;;;5063028;28;20055;-85
2023/01/07 15:24:58;;;;;;;5.07;2.90;;;;;;;;;;5086899;28;20128;-86
2023/01/07 15:27:49;;;;;;;5.57;2.53;;;;;;;;;;5062497;28;20036;-86
2023/01/07 15:30:37;;;;;;;4.65;2.28;;;;;;;;;;5082926;28;20038;-89
2023/01/07 15:33:41;;;;;;;6.88;2.90;;;;;;;;;;5090406;28;20359;-87
2023/01/07 15:36:29;;;;;;;7.10;2.95;;;;;;;;;;5075800;28;20494;-82
2023/01/07 15:39:22;;;;;;;4.88;2.97;;;;;;;;;;5066126;28;20119;-87
2023/01/07 15:42:15;;;;;;;6.85;3.60;;;;;;;;;;5061878;28;20035;-88
2023/01/07 15:45:00;;;;;;;8.93;3.90;;;;;;;;;;5070001;28;20065;-86
2023/01/07 15:47:46;;;;;;;6.53;2.67;;;;;;;;;;5068455;28;20028;-83
2023/01/07 15:50:32;;;;;;;6.65;3.22;;;;;;;;;;5064452;28;20123;-83
2023/01/07 15:53:23;;;;;;;11.50;3.60;;;;;;;;;;5074687;28;20043;-81
2023/01/07 15:56:11;;;;;;;6.68;3.15;;;;;;;;;;5068238;28;20036;-85
2023/01/07 15:58:56;;;;;;;6.82;2.97;;;;;;;;;;5071769;28;20024;-84
2023/01/07 16:01:46;;;;;;;3.38;2.38;;;;;;;;;;5084865;28;20057;-84
2023/01/07 16:04:32;;;;;;;6.30;2.78;;;;;;;;;;5061975;28;20123;-84
2023/01/07 16:07:20;;;;;;;7.03;3.25;;;;;;;;;;5061580;28;20039;-82
2023/01/07 16:10:06;;;;;;;8.27;3.97;;;;;;;;;;5074830;28;20512;-85
2023/01/07 16:12:53;;;;;;;6.88;4.18;;;;;;;;;;5069812;28;20344;-85
2023/01/07 16:15:40;;;;;;;9.50;3.60;;;;;;;;;;5068254;28;20032;-81
2023/01/07 16:18:26;;;;;;;7.10;4.13;;;;;;;;;;5063320;28;20047;-84
2023/01/07 16:21:12;;;;;;;10.63;4.05;;;;;;;;;;5082918;28;20027;-84
2023/01/07 16:23:58;;;;;;;7.13;3.80;;;;;;;;;;5074718;28;20032;-82
2023/01/07 16:26:54;;;;;;;6.18;3.58;;;;;;;;;;5075004;28;20027;-83
2023/01/07 16:29:45;;;;;;;13.63;6.38;;;;;;;;;;5060335;28;20198;-85
2023/01/07 16:32:31;;;;;;;10.52;5.75;;;;;;;;;;5063463;28;20036;-84
2023/01/07 16:35:19;;;;;;;25.33;5.45;;;;;;;;;;5061787;28;20028;-83
2023/01/07 16:38:05;;;;;;;10.35;5.00;;;;;;;;;;5060640;28;20039;-81
2023/01/07 16:40:50;;;;;;;9.57;5.68;;;;;;;;;;5074801;28;20028;-84
2023/01/07 16:43:39;;;;;;;12.63;5.78;;;;;;;;;;5086266;28;20084;-82
2023/01/07 16:46:25;;;;;;;10.70;6.55;;;;;;;;;;5056633;28;20036;-82
2023/01/07 16:49:10;;;;;;;13.20;6.05;;;;;;;;;;5068634;28;20020;-81
2023/01/07 16:52:01;;;;;;;8.98;4.78;;;;;;;;;;5077541;28;20340;-82
2023/01/07 16:54:47;;;;;;;11.20;5.72;;;;;;;;;;5058036;28;20033;-81
2023/01/07 16:57:40;;;;;;;9.10;4.97;;;;;;;;;;5075251;28;20149;-82
2023/01/07 17:00:25;;;;;;;10.30;3.58;;;;;;;;;;5065258;28;20039;-85
2023/01/07 17:03:11;;;;;;;8.43;3.80;;;;;;;;;;5063448;28;20046;-83